Williamsburg, Mississippi
Current Conditions -  °F | °C
As of 10:15 PM on Thursday 27 Nov 2014 (Local Time) from KPIB Reporting Station
Clear Clear  
Wind Chill: 32°   Ceiling: Unl
Heat Index: 37°   Visibility: 10mi
Dew Point: 28°   Wind: 7mph
Humidity: 70%   Direction: 360°N
Pressure: 30.46"   Gusts: NA
Location:  31.6692°N, 89.543°W
Report Text: KPIB 280415Z AUTO 36006KT 10SM CLR 03/M02 A3046 RMK AO1
Loading
Personal Weather Stations






























Interactive Weather Map New forecast layout! Learn more

10-Day Weather Forecast

Advertisements
Track Severe Weather on mobile